Airfield :
LOGIN :

Register | Disclaimer

   EN    FR    IT 

 










Legend :    VFR   Marginal VFR   IFR   Intensive IFR   Very Intensive IFR
Visi :
Ceiling :
>= 8 km
>= 3000ft
5 to 8 km
1000 to 3000 ft
1500m to 5 km
500 to 1000 ft
800 to 1500m
200 to 500 ft
< 800m
< 200 ft
Symbols :   Thunderstorms  Fog  Heavy snow  Heavy precipitations  Wind > 20 kt
SIGMETs :     Misc.  Thunderstorms  Icing  Turbulence  Mountain Waves  Volcanic Ashes







- Airport Elevation : 375 ft
- IATA code : MST


EHBK - Maastricht Aachen

CURRENT METAR :
  • 262025Z AUTO 23007KT 210V270 9999 NSC 09/02 Q1017 NOSIG

EXPIRED METARs :
  • 261955Z AUTO 23006KT 200V260 9999 NSC 10/02 Q1017 NOSIG
  • 261925Z AUTO 24005KT 210V290 9999 NSC 10/02 Q1017 NOSIG
  • 261855Z AUTO 26005KT 220V330 9999 NSC 11/01 Q1017 NOSIG
  • 261825Z AUTO 26004KT 220V320 9999 NSC 12/02 Q1017 NOSIG
  • 261755Z AUTO 24005KT 200V280 9999 NSC 12/03 Q1016 TEMPO -SHRA FEW040CB

TAF TAF EHBK
Valid from the 26 at 18:00 until the 28 at 00:00 UTC


261653Z 2618/2724 26010KT 9999 SCT045
BECMG 2618/2621 23006KT
PROB40
TEMPO 2618/2620 7000 -SHRA FEW040CB SCT045
No reported NOTAMs for that airfield.
1 SIGMET reported for the Amsterdam FIR (EHAA) :
 
Severe turbulence
EHAA SIGMET 1 VALID 261930/262200 EHDB
EHAA AMSTERDAM FIR SEV TURB OBS NE OF LINE N5423 E00247 - N5216 E00701 FL250/320 MOV NE 35KT NC=



MET'MAP, your aeronautical weather chart ! - Copyright ORBIFLY December 2007 - Disclaimer

ORBIFLY MET'MAP TEAM :

Programming & Development : Alexandra Zaïnal
Concept & Development : Baudouin d'Aumeries
Co-Development & Prog : Marc-Olivier Méhu
Technical & hardware support : Manuel Goepfert

Contact : metmap@orbifly.com




SOURCES & CREDITS :

   NOAA